sventon subversion web client - http://www.sventon.org
[show recent changes]
 
  Help
HEAD
Rev: 52268 - http://anonsvn.icesoft.org/repo / maven2 / snapshots / org / apache / pdfbox / jbig2-imageio / 3.0.0-r6.3 / jbig2-imageio-3.0.0-r6.3.jar
Show Archive File - jbig2-imageio-3.0.0-r6.3.jar  [show properties]
Name Original size Compressed size Date CRC
META-INF/MANIFEST.MF 511 265 2/5/18 1:13 PM 1459232475
dir META-INF/ 0 0 2/5/18 1:13 PM 0
dir META-INF/services/ 0 0 9/21/17 7:27 AM 0
dir org/ 0 0 9/21/17 7:27 AM 0
dir org/apache/ 0 0 9/21/17 7:27 AM 0
dir org/apache/pdfbox/ 0 0 9/21/17 7:27 AM 0
dir org/apache/pdfbox/jbig2/ 0 0 9/21/17 7:27 AM 0
dir org/apache/pdfbox/jbig2/decoder/ 0 0 9/21/17 7:27 AM 0
dir org/apache/pdfbox/jbig2/decoder/arithmetic/ 0 0 9/21/17 7:27 AM 0
dir org/apache/pdfbox/jbig2/decoder/huffman/ 0 0 9/21/17 7:27 AM 0
dir org/apache/pdfbox/jbig2/decoder/mmr/ 0 0 9/21/17 7:27 AM 0
dir org/apache/pdfbox/jbig2/err/ 0 0 9/21/17 7:27 AM 0
dir org/apache/pdfbox/jbig2/image/ 0 0 9/21/17 7:27 AM 0
dir org/apache/pdfbox/jbig2/io/ 0 0 9/21/17 7:27 AM 0
dir org/apache/pdfbox/jbig2/segments/ 0 0 9/21/17 7:27 AM 0
dir org/apache/pdfbox/jbig2/util/ 0 0 9/21/17 7:27 AM 0
dir org/apache/pdfbox/jbig2/util/cache/ 0 0 9/21/17 7:27 AM 0
dir org/apache/pdfbox/jbig2/util/log/ 0 0 9/21/17 7:27 AM 0
dir META-INF/maven/ 0 0 2/5/18 1:13 PM 0
dir META-INF/maven/org.apache.pdfbox/ 0 0 2/5/18 1:13 PM 0
dir META-INF/maven/org.apache.pdfbox/jbig2-imageio/ 0 0 2/5/18 1:13 PM 0
META-INF/DEPENDENCIES 277 127 2/5/18 1:13 PM 2405970149
META-INF/services/org.apache.pdfbox.jbig2.util.cache.CacheBridge 863 495 9/21/17 7:27 AM 16278453
META-INF/services/org.apache.pdfbox.jbig2.util.log.LoggerBridge 852 491 9/21/17 7:27 AM 3043723437
org/apache/pdfbox/jbig2/Bitmap.class 1427 787 9/21/17 7:27 AM 1805224404
org/apache/pdfbox/jbig2/decoder/arithmetic/ArithmeticDecoder.class 3738 1808 9/21/17 7:27 AM 2288272889
org/apache/pdfbox/jbig2/decoder/arithmetic/ArithmeticIntegerDecoder.class 1783 953 9/21/17 7:27 AM 2205243022
org/apache/pdfbox/jbig2/decoder/arithmetic/CX.class 711 452 9/21/17 7:27 AM 3992248942
org/apache/pdfbox/jbig2/decoder/huffman/EncodedTable.class 1699 926 9/21/17 7:27 AM 3935266033
org/apache/pdfbox/jbig2/decoder/huffman/FixedSizeTable.class 531 301 9/21/17 7:27 AM 1506632287
org/apache/pdfbox/jbig2/decoder/huffman/HuffmanTable$Code.class 1039 597 9/21/17 7:27 AM 625509210
org/apache/pdfbox/jbig2/decoder/huffman/HuffmanTable.class 2321 1193 9/21/17 7:27 AM 2132427064
org/apache/pdfbox/jbig2/decoder/huffman/InternalNode.class 2480 1278 9/21/17 7:27 AM 2899850969
org/apache/pdfbox/jbig2/decoder/huffman/Node.class 332 260 9/21/17 7:27 AM 4071843107
org/apache/pdfbox/jbig2/decoder/huffman/OutOfBandNode.class 662 360 9/21/17 7:27 AM 161059058
org/apache/pdfbox/jbig2/decoder/huffman/StandardTables$1.class 270 188 9/21/17 7:27 AM 2781373297
org/apache/pdfbox/jbig2/decoder/huffman/StandardTables$StandardTable.class 1094 589 9/21/17 7:27 AM 1470405720
org/apache/pdfbox/jbig2/decoder/huffman/StandardTables.class 4885 1483 9/21/17 7:27 AM 1462975461
org/apache/pdfbox/jbig2/decoder/huffman/ValueNode.class 1176 674 9/21/17 7:27 AM 837035503
org/apache/pdfbox/jbig2/decoder/mmr/MMRConstants.class 6308 2080 9/21/17 7:27 AM 3227620019
org/apache/pdfbox/jbig2/decoder/mmr/MMRDecompressor$Code.class 997 578 9/21/17 7:27 AM 1593609989
org/apache/pdfbox/jbig2/decoder/mmr/MMRDecompressor$RunData.class 3781 2028 9/21/17 7:27 AM 2946092794
org/apache/pdfbox/jbig2/decoder/mmr/MMRDecompressor.class 6241 3438 9/21/17 7:27 AM 3726581159
org/apache/pdfbox/jbig2/Dictionary.class 469 272 9/21/17 7:27 AM 2186415057
org/apache/pdfbox/jbig2/err/IntegerMaxValueException.class 615 359 9/21/17 7:27 AM 2855812261
org/apache/pdfbox/jbig2/err/InvalidHeaderValueException.class 621 363 9/21/17 7:27 AM 3598563060
org/apache/pdfbox/jbig2/err/JBIG2Exception.class 572 348 9/21/17 7:27 AM 1437404681
org/apache/pdfbox/jbig2/image/Bitmaps$1.class 895 522 9/21/17 7:27 AM 3570354515
org/apache/pdfbox/jbig2/image/Bitmaps.class 9371 4496 9/21/17 7:27 AM 104383740
org/apache/pdfbox/jbig2/image/BitmapScanline.class 2637 1344 9/21/17 7:27 AM 1791806599
org/apache/pdfbox/jbig2/image/Filter$1.class 1359 742 9/21/17 7:27 AM 2451780100
org/apache/pdfbox/jbig2/image/Filter$Bessel.class 2395 1478 9/21/17 7:27 AM 4039100473
org/apache/pdfbox/jbig2/image/Filter$Blackman.class 872 486 9/21/17 7:27 AM 2971639163
org/apache/pdfbox/jbig2/image/Filter$Box.class 890 495 9/21/17 7:27 AM 3243106207
org/apache/pdfbox/jbig2/image/Filter$Catrom.class 958 543 9/21/17 7:27 AM 1298652095
org/apache/pdfbox/jbig2/SegmentData.class 401 234 9/21/17 7:27 AM 2622442626
org/apache/pdfbox/jbig2/segments/GenericRefinementRegion$Template.class 464 298 9/21/17 7:27 AM 3697124046
org/apache/pdfbox/jbig2/segments/GenericRefinementRegion.class 11520 5292 9/21/17 7:27 AM 2348916899
org/apache/pdfbox/jbig2/segments/GenericRegion.class 13393 5957 9/21/17 7:27 AM 2836739403
org/apache/pdfbox/jbig2/segments/HalftoneRegion.class 8004 3735 9/21/17 7:27 AM 438553930
org/apache/pdfbox/jbig2/segments/PageInformation.class 4102 1664 9/21/17 7:27 AM 3223282175
org/apache/pdfbox/jbig2/segments/PatternDictionary.class 4153 2054 9/21/17 7:27 AM 959185238
org/apache/pdfbox/jbig2/segments/Profiles.class 400 258 9/21/17 7:27 AM 42938852
org/apache/pdfbox/jbig2/util/ServiceLookup.class 1147 548 9/21/17 7:27 AM 738918259
META-INF/services/javax.imageio.spi.ImageReaderSpi 847 487 9/21/17 7:27 AM 3098410473
org/apache/pdfbox/jbig2/image/Filter$Cubic.class 923 537 9/21/17 7:27 AM 369073304
org/apache/pdfbox/jbig2/image/Filter$Hamming.class 839 468 9/21/17 7:27 AM 1345719548
org/apache/pdfbox/jbig2/image/Filter$Hermite.class 852 470 9/21/17 7:27 AM 3347047798
org/apache/pdfbox/jbig2/image/Filter$Mitchell.class 1126 633 9/21/17 7:27 AM 4030645470
META-INF/NOTICE 179 134 2/5/18 1:13 PM 3155312290
org/apache/pdfbox/jbig2/image/Filter$Gaussian.class 877 497 9/21/17 7:27 AM 2002720920
org/apache/pdfbox/jbig2/image/Filter$Hanning.class 830 453 9/21/17 7:27 AM 3209222839
org/apache/pdfbox/jbig2/image/Filter$Lanczos.class 1007 588 9/21/17 7:27 AM 1293799586
org/apache/pdfbox/jbig2/image/Filter$Point.class 430 285 9/21/17 7:27 AM 4076849530
org/apache/pdfbox/jbig2/image/Filter$Quadratic.class 912 526 9/21/17 7:27 AM 1031374291
org/apache/pdfbox/jbig2/image/Filter$Sinc.class 883 510 9/21/17 7:27 AM 2408455569
org/apache/pdfbox/jbig2/image/Filter.class 3186 1439 9/21/17 7:27 AM 1427639822
org/apache/pdfbox/jbig2/image/ParameterizedFilter.class 1090 612 9/21/17 7:27 AM 235282746
org/apache/pdfbox/jbig2/image/Resizer$Order.class 1100 549 9/21/17 7:27 AM 3236652113
org/apache/pdfbox/jbig2/image/Scanline$ByteBGRScanline.class 3153 1428 9/21/17 7:27 AM 1427511901
org/apache/pdfbox/jbig2/image/Scanline$GenericRasterScanline.class 4119 2149 9/21/17 7:27 AM 2464277197
org/apache/pdfbox/jbig2/image/Scanline$ScanlineFilter.class 279 184 9/21/17 7:27 AM 3398470374
org/apache/pdfbox/jbig2/image/Scanline.class 1117 526 9/21/17 7:27 AM 3955393479
org/apache/pdfbox/jbig2/io/DefaultInputStreamFactory.class 710 387 9/21/17 7:27 AM 1046742979
org/apache/pdfbox/jbig2/io/InputStreamFactory.class 282 193 9/21/17 7:27 AM 1903674655
org/apache/pdfbox/jbig2/io/SubInputStream.class 2041 1192 9/21/17 7:27 AM 3222167065
org/apache/pdfbox/jbig2/JBIG2Globals.class 1471 722 9/21/17 7:27 AM 4102822907
org/apache/pdfbox/jbig2/JBIG2ImageReader.class 6482 2831 9/21/17 7:27 AM 2706923598
org/apache/pdfbox/jbig2/JBIG2ImageReaderSpi.class 3098 1528 9/21/17 7:27 AM 2758722453
org/apache/pdfbox/jbig2/JBIG2ReadParam.class 1101 657 9/21/17 7:27 AM 3254108085
org/apache/pdfbox/jbig2/SegmentHeader.class 8613 3848 9/21/17 7:27 AM 2728764478
org/apache/pdfbox/jbig2/segments/EndOfStripe.class 958 502 9/21/17 7:27 AM 730548848
org/apache/pdfbox/jbig2/segments/GenericRefinementRegion$1.class 283 189 9/21/17 7:27 AM 163782192
org/apache/pdfbox/jbig2/segments/RegionSegmentInformation.class 2044 844 9/21/17 7:27 AM 1786849647
org/apache/pdfbox/jbig2/segments/SymbolDictionary.class 15276 6756 9/21/17 7:27 AM 3190049233
org/apache/pdfbox/jbig2/segments/Table.class 1820 875 9/21/17 7:27 AM 3964939355
org/apache/pdfbox/jbig2/segments/TextRegion.class 15766 6995 9/21/17 7:27 AM 3292830557
org/apache/pdfbox/jbig2/TestImage$ImageComponent.class 2252 1240 9/21/17 7:27 AM 2989548458
org/apache/pdfbox/jbig2/TestImage.class 2396 1397 9/21/17 7:27 AM 1425752546
org/apache/pdfbox/jbig2/util/cache/Cache.class 294 180 9/21/17 7:27 AM 924625110
org/apache/pdfbox/jbig2/util/cache/CacheBridge.class 204 143 9/21/17 7:27 AM 2063290490
org/apache/pdfbox/jbig2/util/cache/CacheFactory.class 1614 807 9/21/17 7:27 AM 413012552
org/apache/pdfbox/jbig2/util/cache/SoftReferenceCache.class 1282 606 9/21/17 7:27 AM 1765809334
org/apache/pdfbox/jbig2/util/cache/SoftReferenceCacheBridge.class 619 317 9/21/17 7:27 AM 2444517777
org/apache/pdfbox/jbig2/util/CombinationOperator.class 1382 670 9/21/17 7:27 AM 3711926695
org/apache/pdfbox/jbig2/util/DictionaryViewer.class 1468 760 9/21/17 7:27 AM 3198399007
org/apache/pdfbox/jbig2/util/log/JDKLogger.class 1725 657 9/21/17 7:27 AM 3955811347
org/apache/pdfbox/jbig2/util/log/JDKLoggerBridge.class 747 375 9/21/17 7:27 AM 492819640
org/apache/pdfbox/jbig2/util/log/Logger.class 442 261 9/21/17 7:27 AM 651377920
org/apache/pdfbox/jbig2/util/log/LoggerBridge.class 307 179 9/21/17 7:27 AM 3107926781
org/apache/pdfbox/jbig2/util/log/LoggerFactory.class 1849 866 9/21/17 7:27 AM 772929922
META-INF/maven/org.apache.pdfbox/jbig2-imageio/pom.xml 6561 2211 2/5/18 1:12 PM 2844110911
META-INF/maven/org.apache.pdfbox/jbig2-imageio/pom.properties 136 127 2/5/18 1:13 PM 1383255881
META-INF/LICENSE 11358 3949 2/5/18 1:13 PM 2263004340
org/apache/pdfbox/jbig2/image/Filter$Triangle.class 824 456 9/21/17 7:27 AM 611264138
org/apache/pdfbox/jbig2/image/FilterType.class 1958 968 9/21/17 7:27 AM 3976434566
org/apache/pdfbox/jbig2/image/Resizer$Mapping.class 992 628 9/21/17 7:27 AM 3193325253
org/apache/pdfbox/jbig2/image/Resizer.class 6876 3298 9/21/17 7:27 AM 2644551286
org/apache/pdfbox/jbig2/image/Scanline$ByteBiLevelPackedScanline.class 2573 1329 9/21/17 7:27 AM 535536441
org/apache/pdfbox/jbig2/image/Scanline$IntegerSinglePixelPackedScanline.class 3477 1827 9/21/17 7:27 AM 315860658
org/apache/pdfbox/jbig2/image/Weighttab.class 1380 928 9/21/17 7:27 AM 3291872227
org/apache/pdfbox/jbig2/JBIG2Document.class 5376 2744 9/21/17 7:27 AM 2550638346
org/apache/pdfbox/jbig2/JBIG2ImageMetadata.class 2504 1285 9/21/17 7:27 AM 834554582
org/apache/pdfbox/jbig2/JBIG2ImageMetadataFormat.class 1203 608 9/21/17 7:27 AM 3256571194
org/apache/pdfbox/jbig2/JBIG2Page.class 7164 3255 9/21/17 7:27 AM 2823562071
org/apache/pdfbox/jbig2/Region.class 482 266 9/21/17 7:27 AM 1805527635
org/apache/pdfbox/jbig2/segments/GenericRefinementRegion$Template0.class 883 417 9/21/17 7:27 AM 691368001
org/apache/pdfbox/jbig2/segments/GenericRefinementRegion$Template1.class 887 426 9/21/17 7:27 AM 2839559827
org/apache/pdfbox/jbig2/util/Utils.class 1359 768 9/21/17 7:27 AM 3916263343
Total: 129 entries 259 kB 123 kB    


feed icon

sventon 2.5.1